sensor_id;sensor_type;location;lat;lon;timestamp;temperature;humidity
21312;DHT22;18076;52.154;10.570;2023-01-01T00:00:57;15.20;99.90
21312;DHT22;18076;52.154;10.570;2023-01-01T00:03:22;15.20;99.90
21312;DHT22;18076;52.154;10.570;2023-01-01T00:05:48;15.30;99.90
21312;DHT22;18076;52.154;10.570;2023-01-01T00:08:13;15.30;99.90
21312;DHT22;18076;52.154;10.570;2023-01-01T00:10:39;15.20;99.90
21312;DHT22;18076;52.154;10.570;2023-01-01T00:13:04;15.20;99.90
21312;DHT22;18076;52.154;10.570;2023-01-01T00:15:30;15.30;99.90
21312;DHT22;18076;52.154;10.570;2023-01-01T00:17:55;15.30;99.90
21312;DHT22;18076;52.154;10.570;2023-01-01T00:20:22;15.30;99.90
21312;DHT22;18076;52.154;10.570;2023-01-01T00:22:47;15.30;99.90
21312;DHT22;18076;52.154;10.570;2023-01-01T00:25:13;15.30;99.90
21312;DHT22;18076;52.154;10.570;2023-01-01T00:27:39;15.40;99.90
21312;DHT22;18076;52.154;10.570;2023-01-01T00:30:05;15.40;99.90
21312;DHT22;18076;52.154;10.570;2023-01-01T00:32:31;15.40;99.90
21312;DHT22;18076;52.154;10.570;2023-01-01T00:34:56;15.50;99.90
21312;DHT22;18076;52.154;10.570;2023-01-01T00:37:22;15.50;99.90
21312;DHT22;18076;52.154;10.570;2023-01-01T00:39:47;15.50;99.90
21312;DHT22;18076;52.154;10.570;2023-01-01T00:42:13;15.50;99.90
21312;DHT22;18076;52.154;10.570;2023-01-01T00:44:39;15.50;99.90
21312;DHT22;18076;52.154;10.570;2023-01-01T00:47:04;15.50;99.90
21312;DHT22;18076;52.154;10.570;2023-01-01T00:49:30;15.50;99.90
21312;DHT22;18076;52.154;10.570;2023-01-01T00:51:55;15.50;99.90
21312;DHT22;18076;52.154;10.570;2023-01-01T00:54:21;15.60;99.90
21312;DHT22;18076;52.154;10.570;2023-01-01T00:56:46;15.60;99.90
21312;DHT22;18076;52.154;10.570;2023-01-01T00:59:12;15.60;99.90
21312;DHT22;18076;52.154;10.570;2023-01-01T01:01:37;15.60;99.90
21312;DHT22;18076;52.154;10.570;2023-01-01T01:04:04;15.60;99.90
21312;DHT22;18076;52.154;10.570;2023-01-01T01:06:30;15.60;99.90
21312;DHT22;18076;52.154;10.570;2023-01-01T01:08:55;15.60;99.90
21312;DHT22;18076;52.154;10.570;2023-01-01T01:11:22;15.60;99.90
21312;DHT22;18076;52.154;10.570;2023-01-01T01:13:49;15.60;99.90
21312;DHT22;18076;52.154;10.570;2023-01-01T01:16:16;15.60;99.90
21312;DHT22;18076;52.154;10.570;2023-01-01T01:18:42;15.60;99.90
21312;DHT22;18076;52.154;10.570;2023-01-01T01:21:08;15.60;99.90
21312;DHT22;18076;52.154;10.570;2023-01-01T01:23:33;15.60;99.90
21312;DHT22;18076;52.154;10.570;2023-01-01T01:26:14;15.50;99.90
21312;DHT22;18076;52.154;10.570;2023-01-01T01:28:40;15.50;99.90
21312;DHT22;18076;52.154;10.570;2023-01-01T01:31:06;15.50;99.90
21312;DHT22;18076;52.154;10.570;2023-01-01T01:33:32;15.50;99.90
21312;DHT22;18076;52.154;10.570;2023-01-01T01:35:57;15.50;99.90
21312;DHT22;18076;52.154;10.570;2023-01-01T01:38:23;15.50;99.90
21312;DHT22;18076;52.154;10.570;2023-01-01T01:40:48;15.50;99.90
21312;DHT22;18076;52.154;10.570;2023-01-01T01:43:21;15.50;99.90
21312;DHT22;18076;52.154;10.570;2023-01-01T01:45:47;15.40;99.90
21312;DHT22;18076;52.154;10.570;2023-01-01T01:48:13;15.40;99.90
21312;DHT22;18076;52.154;10.570;2023-01-01T01:50:39;15.40;99.90
21312;DHT22;18076;52.154;10.570;2023-01-01T01:53:09;15.50;99.90
21312;DHT22;18076;52.154;10.570;2023-01-01T01:55:38;15.60;99.90
21312;DHT22;18076;52.154;10.570;2023-01-01T01:58:05;15.60;99.90
21312;DHT22;18076;52.154;10.570;2023-01-01T02:00:32;15.50;99.90
21312;DHT22;18076;52.154;10.570;2023-01-01T02:03:08;15.50;99.90
21312;DHT22;18076;52.154;10.570;2023-01-01T02:05:34;15.50;99.90
21312;DHT22;18076;52.154;10.570;2023-01-01T02:08:00;15.50;99.90
21312;DHT22;18076;52.154;10.570;2023-01-01T02:10:27;15.50;99.90
21312;DHT22;18076;52.154;10.570;2023-01-01T02:12:52;15.50;99.90
21312;DHT22;18076;52.154;10.570;2023-01-01T02:15:18;15.50;99.90
21312;DHT22;18076;52.154;10.570;2023-01-01T02:17:53;15.50;99.90
21312;DHT22;18076;52.154;10.570;2023-01-01T02:22:55;15.50;99.90
21312;DHT22;18076;52.154;10.570;2023-01-01T02:27:55;15.50;99.90
21312;DHT22;18076;52.154;10.570;2023-01-01T02:30:21;15.60;99.90
21312;DHT22;18076;52.154;10.570;2023-01-01T02:32:50;15.60;99.90
21312;DHT22;18076;52.154;10.570;2023-01-01T02:35:27;15.60;99.90
21312;DHT22;18076;52.154;10.570;2023-01-01T02:40:45;15.50;99.90
21312;DHT22;18076;52.154;10.570;2023-01-01T02:43:11;15.50;99.90
21312;DHT22;18076;52.154;10.570;2023-01-01T02:45:36;15.50;99.90
21312;DHT22;18076;52.154;10.570;2023-01-01T02:48:03;15.50;99.90
21312;DHT22;18076;52.154;10.570;2023-01-01T02:50:29;15.50;99.90
21312;DHT22;18076;52.154;10.570;2023-01-01T02:58:19;15.60;99.90
21312;DHT22;18076;52.154;10.570;2023-01-01T03:01:11;15.60;99.90
21312;DHT22;18076;52.154;10.570;2023-01-01T03:03:49;15.50;99.90
21312;DHT22;18076;52.154;10.570;2023-01-01T03:06:27;15.50;99.90
21312;DHT22;18076;52.154;10.570;2023-01-01T03:11:30;15.20;99.90
21312;DHT22;18076;52.154;10.570;2023-01-01T03:19:21;15.20;99.90
21312;DHT22;18076;52.154;10.570;2023-01-01T03:22:02;15.20;99.90
21312;DHT22;18076;52.154;10.570;2023-01-01T03:24:33;15.20;99.90
21312;DHT22;18076;52.154;10.570;2023-01-01T03:27:01;15.10;99.90
21312;DHT22;18076;52.154;10.570;2023-01-01T03:29:28;15.10;99.90
21312;DHT22;18076;52.154;10.570;2023-01-01T03:31:56;15.20;99.90
21312;DHT22;18076;52.154;10.570;2023-01-01T03:34:26;15.20;99.90
21312;DHT22;18076;52.154;10.570;2023-01-01T03:36:55;15.20;99.90
21312;DHT22;18076;52.154;10.570;2023-01-01T03:39:23;15.10;99.90
21312;DHT22;18076;52.154;10.570;2023-01-01T03:44:26;15.20;99.90
21312;DHT22;18076;52.154;10.570;2023-01-01T03:46:53;15.20;99.90
21312;DHT22;18076;52.154;10.570;2023-01-01T03:49:18;15.10;99.90
21312;DHT22;18076;52.154;10.570;2023-01-01T03:54:41;15.10;99.90
21312;DHT22;18076;52.154;10.570;2023-01-01T04:00:13;15.10;99.90
21312;DHT22;18076;52.154;10.570;2023-01-01T04:02:58;15.00;99.90
21312;DHT22;18076;52.154;10.570;2023-01-01T04:05:24;15.10;99.90
21312;DHT22;18076;52.154;10.570;2023-01-01T04:07:50;15.10;99.90
21312;DHT22;18076;52.154;10.570;2023-01-01T04:10:17;15.10;99.90
21312;DHT22;18076;52.154;10.570;2023-01-01T04:12:50;15.10;99.90
21312;DHT22;18076;52.154;10.570;2023-01-01T04:15:20;15.10;99.90
21312;DHT22;18076;52.154;10.570;2023-01-01T04:17:46;15.00;99.90
21312;DHT22;18076;52.154;10.570;2023-01-01T04:20:11;14.90;99.90
21312;DHT22;18076;52.154;10.570;2023-01-01T04:22:37;15.00;99.90
21312;DHT22;18076;52.154;10.570;2023-01-01T04:25:03;15.00;99.90
21312;DHT22;18076;52.154;10.570;2023-01-01T04:27:29;14.90;99.90
21312;DHT22;18076;52.154;10.570;2023-01-01T04:29:54;14.90;99.90
21312;DHT22;18076;52.154;10.570;2023-01-01T04:32:20;14.90;99.90
21312;DHT22;18076;52.154;10.570;2023-01-01T04:34:46;14.90;99.90
21312;DHT22;18076;52.154;10.570;2023-01-01T04:37:12;14.90;99.90
21312;DHT22;18076;52.154;10.570;2023-01-01T04:39:37;14.90;99.90
21312;DHT22;18076;52.154;10.570;2023-01-01T04:42:03;14.90;99.90
21312;DHT22;18076;52.154;10.570;2023-01-01T04:44:28;14.90;99.90
21312;DHT22;18076;52.154;10.570;2023-01-01T04:46:54;14.80;99.90
21312;DHT22;18076;52.154;10.570;2023-01-01T04:49:19;14.80;99.90
21312;DHT22;18076;52.154;10.570;2023-01-01T04:51:45;14.80;99.90
21312;DHT22;18076;52.154;10.570;2023-01-01T04:54:11;14.80;99.90
21312;DHT22;18076;52.154;10.570;2023-01-01T04:56:36;14.80;99.90
21312;DHT22;18076;52.154;10.570;2023-01-01T04:59:02;14.70;99.90
21312;DHT22;18076;52.154;10.570;2023-01-01T05:01:27;14.70;99.90
21312;DHT22;18076;52.154;10.570;2023-01-01T05:03:54;14.70;99.90
21312;DHT22;18076;52.154;10.570;2023-01-01T05:06:20;14.60;99.90
21312;DHT22;18076;52.154;10.570;2023-01-01T05:08:46;14.60;99.90
21312;DHT22;18076;52.154;10.570;2023-01-01T05:11:13;14.60;99.90
21312;DHT22;18076;52.154;10.570;2023-01-01T05:13:40;14.50;99.90
21312;DHT22;18076;52.154;10.570;2023-01-01T05:16:07;14.50;99.90
21312;DHT22;18076;52.154;10.570;2023-01-01T05:18:33;14.50;99.90
21312;DHT22;18076;52.154;10.570;2023-01-01T05:20:59;14.50;99.90
21312;DHT22;18076;52.154;10.570;2023-01-01T05:23:25;14.50;99.90
21312;DHT22;18076;52.154;10.570;2023-01-01T05:25:50;14.50;99.90
21312;DHT22;18076;52.154;10.570;2023-01-01T05:28:16;14.50;99.90
21312;DHT22;18076;52.154;10.570;2023-01-01T05:30:41;14.40;99.90
21312;DHT22;18076;52.154;10.570;2023-01-01T05:33:07;14.40;99.90
21312;DHT22;18076;52.154;10.570;2023-01-01T05:35:32;14.40;99.90
21312;DHT22;18076;52.154;10.570;2023-01-01T05:37:58;14.30;99.90
21312;DHT22;18076;52.154;10.570;2023-01-01T05:40:24;14.40;99.90
21312;DHT22;18076;52.154;10.570;2023-01-01T05:42:50;14.40;99.90
21312;DHT22;18076;52.154;10.570;2023-01-01T05:45:15;14.40;99.90
21312;DHT22;18076;52.154;10.570;2023-01-01T05:47:41;14.50;99.90
21312;DHT22;18076;52.154;10.570;2023-01-01T05:50:06;14.50;99.90
21312;DHT22;18076;52.154;10.570;2023-01-01T05:52:32;14.50;99.90
21312;DHT22;18076;52.154;10.570;2023-01-01T05:54:58;14.50;99.90
21312;DHT22;18076;52.154;10.570;2023-01-01T05:57:26;14.50;99.90
21312;DHT22;18076;52.154;10.570;2023-01-01T05:59:52;14.60;99.90
21312;DHT22;18076;52.154;10.570;2023-01-01T06:02:18;14.50;99.90
21312;DHT22;18076;52.154;10.570;2023-01-01T06:04:43;14.50;99.90
21312;DHT22;18076;52.154;10.570;2023-01-01T06:07:09;14.60;99.90
21312;DHT22;18076;52.154;10.570;2023-01-01T06:09:34;14.60;99.90
21312;DHT22;18076;52.154;10.570;2023-01-01T06:12:00;14.60;99.90
21312;DHT22;18076;52.154;10.570;2023-01-01T06:14:25;14.50;99.90
21312;DHT22;18076;52.154;10.570;2023-01-01T06:16:51;14.50;99.90
21312;DHT22;18076;52.154;10.570;2023-01-01T06:19:16;14.60;99.90
21312;DHT22;18076;52.154;10.570;2023-01-01T06:21:42;14.60;99.90
21312;DHT22;18076;52.154;10.570;2023-01-01T06:24:15;14.60;99.90
21312;DHT22;18076;52.154;10.570;2023-01-01T06:26:41;14.60;99.90
21312;DHT22;18076;52.154;10.570;2023-01-01T06:29:06;14.60;99.90
21312;DHT22;18076;52.154;10.570;2023-01-01T06:31:32;14.70;99.90
21312;DHT22;18076;52.154;10.570;2023-01-01T06:33:57;14.60;99.90
21312;DHT22;18076;52.154;10.570;2023-01-01T06:36:23;14.60;99.90
21312;DHT22;18076;52.154;10.570;2023-01-01T06:38:50;14.60;99.90
21312;DHT22;18076;52.154;10.570;2023-01-01T06:41:17;14.60;99.90
21312;DHT22;18076;52.154;10.570;2023-01-01T06:43:43;14.60;99.90
21312;DHT22;18076;52.154;10.570;2023-01-01T06:48:44;14.50;99.90
21312;DHT22;18076;52.154;10.570;2023-01-01T06:51:11;14.50;99.90
21312;DHT22;18076;52.154;10.570;2023-01-01T06:53:37;14.50;99.90
21312;DHT22;18076;52.154;10.570;2023-01-01T06:56:03;14.50;99.90
21312;DHT22;18076;52.154;10.570;2023-01-01T06:58:29;14.50;99.90
21312;DHT22;18076;52.154;10.570;2023-01-01T07:01:01;14.50;99.90
21312;DHT22;18076;52.154;10.570;2023-01-01T07:03:27;14.50;99.90
21312;DHT22;18076;52.154;10.570;2023-01-01T07:05:52;14.50;99.90
21312;DHT22;18076;52.154;10.570;2023-01-01T07:08:18;14.50;99.90
21312;DHT22;18076;52.154;10.570;2023-01-01T07:10:43;14.40;99.90
21312;DHT22;18076;52.154;10.570;2023-01-01T07:13:09;14.40;99.90
21312;DHT22;18076;52.154;10.570;2023-01-01T07:15:34;14.40;99.90
21312;DHT22;18076;52.154;10.570;2023-01-01T07:18:00;14.40;99.90
21312;DHT22;18076;52.154;10.570;2023-01-01T07:20:25;14.40;99.90
21312;DHT22;18076;52.154;10.570;2023-01-01T07:22:51;14.40;99.90
21312;DHT22;18076;52.154;10.570;2023-01-01T07:25:16;14.40;99.90
21312;DHT22;18076;52.154;10.570;2023-01-01T07:27:42;14.40;99.90
21312;DHT22;18076;52.154;10.570;2023-01-01T07:30:08;14.40;99.90
21312;DHT22;18076;52.154;10.570;2023-01-01T07:32:33;14.40;99.90
21312;DHT22;18076;52.154;10.570;2023-01-01T07:34:59;14.30;99.90
21312;DHT22;18076;52.154;10.570;2023-01-01T07:37:24;14.40;99.90
21312;DHT22;18076;52.154;10.570;2023-01-01T07:39:50;14.40;99.90
21312;DHT22;18076;52.154;10.570;2023-01-01T07:42:18;14.40;99.90
21312;DHT22;18076;52.154;10.570;2023-01-01T07:44:44;14.50;99.90
21312;DHT22;18076;52.154;10.570;2023-01-01T07:47:23;14.50;99.90
21312;DHT22;18076;52.154;10.570;2023-01-01T07:49:49;14.40;99.90
21312;DHT22;18076;52.154;10.570;2023-01-01T07:52:14;14.40;99.90
21312;DHT22;18076;52.154;10.570;2023-01-01T07:54:40;14.40;99.90
21312;DHT22;18076;52.154;10.570;2023-01-01T07:57:05;14.50;99.90
21312;DHT22;18076;52.154;10.570;2023-01-01T07:59:31;14.40;99.90
21312;DHT22;18076;52.154;10.570;2023-01-01T08:01:56;14.50;99.90
21312;DHT22;18076;52.154;10.570;2023-01-01T08:04:22;14.40;99.90
21312;DHT22;18076;52.154;10.570;2023-01-01T08:06:47;14.40;99.90
21312;DHT22;18076;52.154;10.570;2023-01-01T08:09:13;14.40;99.90
21312;DHT22;18076;52.154;10.570;2023-01-01T08:11:38;14.40;99.90
21312;DHT22;18076;52.154;10.570;2023-01-01T08:14:04;14.50;99.90
21312;DHT22;18076;52.154;10.570;2023-01-01T08:16:29;14.50;99.90
21312;DHT22;18076;52.154;10.570;2023-01-01T08:18:55;14.50;99.90
21312;DHT22;18076;52.154;10.570;2023-01-01T08:21:21;14.50;99.90
21312;DHT22;18076;52.154;10.570;2023-01-01T08:23:46;14.50;99.90
21312;DHT22;18076;52.154;10.570;2023-01-01T08:26:15;14.40;99.90
21312;DHT22;18076;52.154;10.570;2023-01-01T08:28:41;14.40;99.90
21312;DHT22;18076;52.154;10.570;2023-01-01T08:31:06;14.40;99.90
21312;DHT22;18076;52.154;10.570;2023-01-01T08:33:32;14.40;99.90
21312;DHT22;18076;52.154;10.570;2023-01-01T08:35:57;14.40;99.90
21312;DHT22;18076;52.154;10.570;2023-01-01T08:38:23;14.40;99.90
21312;DHT22;18076;52.154;10.570;2023-01-01T08:40:49;14.40;99.90
21312;DHT22;18076;52.154;10.570;2023-01-01T08:43:14;14.40;99.90
21312;DHT22;18076;52.154;10.570;2023-01-01T08:45:40;14.40;99.90
21312;DHT22;18076;52.154;10.570;2023-01-01T08:48:05;14.40;99.90
21312;DHT22;18076;52.154;10.570;2023-01-01T08:50:31;14.40;99.90
21312;DHT22;18076;52.154;10.570;2023-01-01T08:52:57;14.40;99.90
21312;DHT22;18076;52.154;10.570;2023-01-01T08:55:23;14.50;99.90
21312;DHT22;18076;52.154;10.570;2023-01-01T08:57:48;14.50;99.90
21312;DHT22;18076;52.154;10.570;2023-01-01T09:00:14;14.50;99.90
21312;DHT22;18076;52.154;10.570;2023-01-01T09:02:40;14.40;99.90
21312;DHT22;18076;52.154;10.570;2023-01-01T09:05:06;14.50;99.90
21312;DHT22;18076;52.154;10.570;2023-01-01T09:07:32;14.50;99.90
21312;DHT22;18076;52.154;10.570;2023-01-01T09:09:57;14.50;99.90
21312;DHT22;18076;52.154;10.570;2023-01-01T09:12:23;14.50;99.90
21312;DHT22;18076;52.154;10.570;2023-01-01T09:14:48;14.50;99.90
21312;DHT22;18076;52.154;10.570;2023-01-01T09:17:14;14.50;99.90
21312;DHT22;18076;52.154;10.570;2023-01-01T09:19:39;14.50;99.90
21312;DHT22;18076;52.154;10.570;2023-01-01T09:22:09;14.50;99.90
21312;DHT22;18076;52.154;10.570;2023-01-01T09:24:35;14.50;99.90
21312;DHT22;18076;52.154;10.570;2023-01-01T09:27:00;14.50;99.90
21312;DHT22;18076;52.154;10.570;2023-01-01T09:29:26;14.50;99.90
21312;DHT22;18076;52.154;10.570;2023-01-01T09:31:51;14.50;99.90
21312;DHT22;18076;52.154;10.570;2023-01-01T09:34:17;14.50;99.90
21312;DHT22;18076;52.154;10.570;2023-01-01T09:36:42;14.40;99.90
21312;DHT22;18076;52.154;10.570;2023-01-01T09:39:10;14.50;99.90
21312;DHT22;18076;52.154;10.570;2023-01-01T09:41:44;14.40;99.90
21312;DHT22;18076;52.154;10.570;2023-01-01T09:46:42;14.50;99.90
21312;DHT22;18076;52.154;10.570;2023-01-01T09:49:13;14.50;99.90
21312;DHT22;18076;52.154;10.570;2023-01-01T09:51:39;14.50;99.90
21312;DHT22;18076;52.154;10.570;2023-01-01T09:54:06;14.50;99.90
21312;DHT22;18076;52.154;10.570;2023-01-01T09:56:35;14.50;99.90
21312;DHT22;18076;52.154;10.570;2023-01-01T09:59:00;14.50;99.90
21312;DHT22;18076;52.154;10.570;2023-01-01T10:06:37;14.70;99.90
21312;DHT22;18076;52.154;10.570;2023-01-01T10:11:41;14.70;99.90
21312;DHT22;18076;52.154;10.570;2023-01-01T10:14:15;14.80;99.90
21312;DHT22;18076;52.154;10.570;2023-01-01T10:16:43;14.80;99.90
21312;DHT22;18076;52.154;10.570;2023-01-01T10:21:55;14.90;99.90
21312;DHT22;18076;52.154;10.570;2023-01-01T10:26:56;14.90;99.90
21312;DHT22;18076;52.154;10.570;2023-01-01T10:29:35;14.90;99.90
21312;DHT22;18076;52.154;10.570;2023-01-01T10:32:14;15.00;99.90
21312;DHT22;18076;52.154;10.570;2023-01-01T10:34:41;15.00;99.90
21312;DHT22;18076;52.154;10.570;2023-01-01T10:37:07;15.00;99.90
21312;DHT22;18076;52.154;10.570;2023-01-01T10:39:33;15.00;99.90
21312;DHT22;18076;52.154;10.570;2023-01-01T10:41:59;15.10;99.90
21312;DHT22;18076;52.154;10.570;2023-01-01T10:44:30;15.10;99.90
21312;DHT22;18076;52.154;10.570;2023-01-01T10:46:58;15.20;99.90
21312;DHT22;18076;52.154;10.570;2023-01-01T10:49:29;15.30;99.90
21312;DHT22;18076;52.154;10.570;2023-01-01T10:51:54;15.40;99.90
21312;DHT22;18076;52.154;10.570;2023-01-01T10:54:36;15.40;99.90
21312;DHT22;18076;52.154;10.570;2023-01-01T10:57:12;15.40;99.90
21312;DHT22;18076;52.154;10.570;2023-01-01T10:59:39;15.60;99.90
21312;DHT22;18076;52.154;10.570;2023-01-01T11:02:24;15.60;99.90
21312;DHT22;18076;52.154;10.570;2023-01-01T11:04:50;15.60;99.90
21312;DHT22;18076;52.154;10.570;2023-01-01T11:07:29;15.60;99.90
21312;DHT22;18076;52.154;10.570;2023-01-01T11:10:02;15.50;99.90
21312;DHT22;18076;52.154;10.570;2023-01-01T11:12:30;15.40;99.90
21312;DHT22;18076;52.154;10.570;2023-01-01T11:14:57;15.30;99.90
21312;DHT22;18076;52.154;10.570;2023-01-01T11:17:24;15.30;99.90
21312;DHT22;18076;52.154;10.570;2023-01-01T11:19:50;15.20;99.90
21312;DHT22;18076;52.154;10.570;2023-01-01T11:25:19;15.20;99.90
21312;DHT22;18076;52.154;10.570;2023-01-01T11:27:46;15.20;99.90
21312;DHT22;18076;52.154;10.570;2023-01-01T11:32:43;15.10;99.90
21312;DHT22;18076;52.154;10.570;2023-01-01T11:35:14;15.10;99.90
21312;DHT22;18076;52.154;10.570;2023-01-01T11:37:41;15.20;99.90
21312;DHT22;18076;52.154;10.570;2023-01-01T11:40:43;15.20;99.90
21312;DHT22;18076;52.154;10.570;2023-01-01T11:43:01;15.30;99.90
21312;DHT22;18076;52.154;10.570;2023-01-01T11:45:38;15.20;99.90
21312;DHT22;18076;52.154;10.570;2023-01-01T11:48:05;15.30;99.90
21312;DHT22;18076;52.154;10.570;2023-01-01T11:50:39;15.20;99.90
21312;DHT22;18076;52.154;10.570;2023-01-01T11:55:51;15.10;99.90
21312;DHT22;18076;52.154;10.570;2023-01-01T12:00:48;15.10;99.90
21312;DHT22;18076;52.154;10.570;2023-01-01T12:03:21;15.00;99.90
21312;DHT22;18076;52.154;10.570;2023-01-01T12:05:48;14.90;99.90
21312;DHT22;18076;52.154;10.570;2023-01-01T12:08:18;14.50;99.90
21312;DHT22;18076;52.154;10.570;2023-01-01T12:10:48;14.30;99.90
21312;DHT22;18076;52.154;10.570;2023-01-01T12:13:21;14.00;99.90
21312;DHT22;18076;52.154;10.570;2023-01-01T12:15:53;13.90;99.90
21312;DHT22;18076;52.154;10.570;2023-01-01T12:23:15;13.80;99.90
21312;DHT22;18076;52.154;10.570;2023-01-01T12:25:43;13.80;99.90
21312;DHT22;18076;52.154;10.570;2023-01-01T12:30:43;13.90;99.90
21312;DHT22;18076;52.154;10.570;2023-01-01T12:33:17;14.10;99.90
21312;DHT22;18076;52.154;10.570;2023-01-01T12:39:07;14.10;99.90
21312;DHT22;18076;52.154;10.570;2023-01-01T12:41:17;14.10;99.90
21312;DHT22;18076;52.154;10.570;2023-01-01T12:43:51;14.00;99.90
21312;DHT22;18076;52.154;10.570;2023-01-01T12:48:50;14.10;99.90
21312;DHT22;18076;52.154;10.570;2023-01-01T12:51:23;14.00;99.90
21312;DHT22;18076;52.154;10.570;2023-01-01T12:56:30;13.90;99.90
21312;DHT22;18076;52.154;10.570;2023-01-01T12:59:04;13.80;99.90
21312;DHT22;18076;52.154;10.570;2023-01-01T13:01:30;13.90;99.90
21312;DHT22;18076;52.154;10.570;2023-01-01T13:03:58;13.90;99.90
21312;DHT22;18076;52.154;10.570;2023-01-01T13:06:33;13.80;99.90
21312;DHT22;18076;52.154;10.570;2023-01-01T13:09:06;13.90;99.90
21312;DHT22;18076;52.154;10.570;2023-01-01T13:11:32;13.90;99.90
21312;DHT22;18076;52.154;10.570;2023-01-01T13:13:58;14.00;99.90
21312;DHT22;18076;52.154;10.570;2023-01-01T13:16:36;14.00;99.90
21312;DHT22;18076;52.154;10.570;2023-01-01T13:19:03;14.00;99.90
21312;DHT22;18076;52.154;10.570;2023-01-01T13:21:29;14.00;99.90
21312;DHT22;18076;52.154;10.570;2023-01-01T13:23:59;14.00;99.90
21312;DHT22;18076;52.154;10.570;2023-01-01T13:31:16;14.00;99.90
21312;DHT22;18076;52.154;10.570;2023-01-01T13:33:42;14.00;99.90
21312;DHT22;18076;52.154;10.570;2023-01-01T13:54:25;13.10;99.90
21312;DHT22;18076;52.154;10.570;2023-01-01T14:01:59;12.70;99.90
21312;DHT22;18076;52.154;10.570;2023-01-01T14:04:34;12.60;99.90
21312;DHT22;18076;52.154;10.570;2023-01-01T14:07:04;12.60;99.90
21312;DHT22;18076;52.154;10.570;2023-01-01T14:09:31;12.60;99.90
21312;DHT22;18076;52.154;10.570;2023-01-01T14:11:56;12.60;99.90
21312;DHT22;18076;52.154;10.570;2023-01-01T14:14:32;12.60;99.90
21312;DHT22;18076;52.154;10.570;2023-01-01T14:17:01;12.60;99.90
21312;DHT22;18076;52.154;10.570;2023-01-01T14:19:30;12.80;99.90
21312;DHT22;18076;52.154;10.570;2023-01-01T14:21:56;12.80;99.90
21312;DHT22;18076;52.154;10.570;2023-01-01T14:24:21;12.80;99.90
21312;DHT22;18076;52.154;10.570;2023-01-01T14:26:47;12.80;99.90
21312;DHT22;18076;52.154;10.570;2023-01-01T14:29:24;12.80;99.90
21312;DHT22;18076;52.154;10.570;2023-01-01T14:31:50;12.80;99.90
21312;DHT22;18076;52.154;10.570;2023-01-01T14:36:48;12.80;99.90
21312;DHT22;18076;52.154;10.570;2023-01-01T14:39:26;12.80;99.90
21312;DHT22;18076;52.154;10.570;2023-01-01T14:41:52;12.80;99.90
21312;DHT22;18076;52.154;10.570;2023-01-01T14:44:19;12.80;99.90
21312;DHT22;18076;52.154;10.570;2023-01-01T14:46:46;12.70;99.90
21312;DHT22;18076;52.154;10.570;2023-01-01T14:49:17;12.70;99.90
21312;DHT22;18076;52.154;10.570;2023-01-01T14:51:44;12.70;99.90
21312;DHT22;18076;52.154;10.570;2023-01-01T14:54:15;12.80;99.90
21312;DHT22;18076;52.154;10.570;2023-01-01T14:56:41;12.80;99.90
21312;DHT22;18076;52.154;10.570;2023-01-01T14:59:22;12.80;99.90
21312;DHT22;18076;52.154;10.570;2023-01-01T15:04:27;13.00;99.90
21312;DHT22;18076;52.154;10.570;2023-01-01T15:06:54;13.10;99.90
21312;DHT22;18076;52.154;10.570;2023-01-01T15:09:19;13.10;99.90
21312;DHT22;18076;52.154;10.570;2023-01-01T15:11:45;13.20;99.90
21312;DHT22;18076;52.154;10.570;2023-01-01T15:16:59;13.20;99.90
21312;DHT22;18076;52.154;10.570;2023-01-01T15:19:25;13.20;99.90
21312;DHT22;18076;52.154;10.570;2023-01-01T15:21:51;13.10;99.90
21312;DHT22;18076;52.154;10.570;2023-01-01T15:24:17;13.10;99.90
21312;DHT22;18076;52.154;10.570;2023-01-01T15:29:25;13.00;99.90
21312;DHT22;18076;52.154;10.570;2023-01-01T15:31:52;13.00;99.90
21312;DHT22;18076;52.154;10.570;2023-01-01T15:34:22;12.90;99.90
21312;DHT22;18076;52.154;10.570;2023-01-01T15:41:53;12.70;99.90
21312;DHT22;18076;52.154;10.570;2023-01-01T15:46:47;12.60;99.90
21312;DHT22;18076;52.154;10.570;2023-01-01T15:49:25;12.60;99.90
21312;DHT22;18076;52.154;10.570;2023-01-01T15:51:59;12.70;99.90
21312;DHT22;18076;52.154;10.570;2023-01-01T15:54:32;12.70;99.90
21312;DHT22;18076;52.154;10.570;2023-01-01T15:57:00;12.70;99.90
21312;DHT22;18076;52.154;10.570;2023-01-01T15:59:30;12.70;99.90
21312;DHT22;18076;52.154;10.570;2023-01-01T16:04:36;12.70;99.90
21312;DHT22;18076;52.154;10.570;2023-01-01T16:07:24;12.50;99.90
21312;DHT22;18076;52.154;10.570;2023-01-01T16:09:51;12.60;99.90
21312;DHT22;18076;52.154;10.570;2023-01-01T16:12:18;12.60;99.90
21312;DHT22;18076;52.154;10.570;2023-01-01T16:14:45;12.60;99.90
21312;DHT22;18076;52.154;10.570;2023-01-01T16:17:19;12.60;99.90
21312;DHT22;18076;52.154;10.570;2023-01-01T16:19:46;12.60;99.90
21312;DHT22;18076;52.154;10.570;2023-01-01T16:22:16;12.70;99.90
21312;DHT22;18076;52.154;10.570;2023-01-01T16:24:46;12.80;99.90
21312;DHT22;18076;52.154;10.570;2023-01-01T16:27:16;12.80;99.90
21312;DHT22;18076;52.154;10.570;2023-01-01T16:29:43;12.80;99.90
21312;DHT22;18076;52.154;10.570;2023-01-01T16:32:14;12.80;99.90
21312;DHT22;18076;52.154;10.570;2023-01-01T16:34:43;12.80;99.90
21312;DHT22;18076;52.154;10.570;2023-01-01T16:37:12;12.80;99.90
21312;DHT22;18076;52.154;10.570;2023-01-01T16:39:46;12.90;99.90
21312;DHT22;18076;52.154;10.570;2023-01-01T16:42:13;12.90;99.90
21312;DHT22;18076;52.154;10.570;2023-01-01T16:44:41;12.90;99.90
21312;DHT22;18076;52.154;10.570;2023-01-01T16:47:10;12.90;99.90
21312;DHT22;18076;52.154;10.570;2023-01-01T16:49:38;12.80;99.90
21312;DHT22;18076;52.154;10.570;2023-01-01T16:52:04;12.60;99.90
21312;DHT22;18076;52.154;10.570;2023-01-01T16:54:32;12.50;99.90
21312;DHT22;18076;52.154;10.570;2023-01-01T16:57:00;12.30;99.90
21312;DHT22;18076;52.154;10.570;2023-01-01T16:59:30;12.10;99.90
21312;DHT22;18076;52.154;10.570;2023-01-01T17:01:58;12.00;99.90
21312;DHT22;18076;52.154;10.570;2023-01-01T17:04:26;11.90;99.90
21312;DHT22;18076;52.154;10.570;2023-01-01T17:06:55;11.80;99.90
21312;DHT22;18076;52.154;10.570;2023-01-01T17:09:21;11.70;99.90
21312;DHT22;18076;52.154;10.570;2023-01-01T17:11:48;11.70;99.90
21312;DHT22;18076;52.154;10.570;2023-01-01T17:14:14;11.60;99.90
21312;DHT22;18076;52.154;10.570;2023-01-01T17:16:41;11.50;99.90
21312;DHT22;18076;52.154;10.570;2023-01-01T17:19:11;11.40;99.90
21312;DHT22;18076;52.154;10.570;2023-01-01T17:21:39;11.40;99.90